Time;durP1;ratioP1;P1;durP2;ratioP2;P2;SDS_P1;SDS_P2;PMS_P1;PMS_P2;Temp;Humidity;BMP_temperature;BMP_pressure;BME280_temperature;BME280_humidity;BME280_pressure;Samples;Min_cycle;Max_cycle;Signal;HPM_P1;HPM_P2
2021/08/18 00:00:05;;;;;;;23.77;21.77;;;17.40;99.90;;;;;;2071331;28;20030;-70
2021/08/18 00:01:06;;;;;;;23.92;21.83;;;17.40;99.90;;;;;;2072728;28;20504;-70
2021/08/18 00:02:07;;;;;;;23.10;21.20;;;17.40;99.90;;;;;;2071367;28;20119;-69
2021/08/18 00:03:08;;;;;;;23.23;21.13;;;17.40;99.90;;;;;;2070759;28;20053;-69
2021/08/18 00:04:09;;;;;;;20.90;19.10;;;17.40;99.90;;;;;;2071385;28;20033;-69
2021/08/18 00:05:13;;;;;;;22.67;20.77;;;17.40;99.90;;;;;;2071434;28;20104;-69
2021/08/18 00:06:13;;;;;;;24.23;22.05;;;17.40;99.90;;;;;;2071527;28;20053;-69
2021/08/18 00:07:14;;;;;;;23.70;21.70;;;17.40;99.90;;;;;;2071454;28;20030;-69
2021/08/18 00:08:14;;;;;;;25.52;23.25;;;17.40;99.90;;;;;;2071419;28;20050;-69
2021/08/18 00:09:15;;;;;;;24.60;22.48;;;17.40;99.90;;;;;;2071525;28;20095;-69
2021/08/18 00:10:16;;;;;;;23.58;21.58;;;17.40;99.90;;;;;;2071589;28;20022;-69
2021/08/18 00:11:16;;;;;;;23.55;21.15;;;17.40;99.90;;;;;;2071309;28;20466;-69
2021/08/18 00:12:17;;;;;;;21.58;19.70;;;17.40;99.90;;;;;;2071656;28;20076;-69
2021/08/18 00:13:22;;;;;;;23.67;21.48;;;17.40;99.90;;;;;;2071170;28;20014;-70
2021/08/18 00:14:23;;;;;;;23.70;21.40;;;17.40;99.90;;;;;;2070971;28;20034;-69
2021/08/18 00:15:25;;;;;;;23.00;21.00;;;17.40;99.90;;;;;;2070863;28;20051;-69
2021/08/18 00:16:27;;;;;;;23.65;21.55;;;17.40;99.90;;;;;;2069979;28;20440;-69
2021/08/18 00:17:27;;;;;;;23.70;21.42;;;17.40;99.90;;;;;;2065613;28;20045;-69
2021/08/18 00:18:28;;;;;;;22.27;20.17;;;17.40;99.90;;;;;;2072212;28;20052;-70
2021/08/18 00:19:28;;;;;;;22.63;20.02;;;17.40;99.90;;;;;;2071407;28;20485;-70
2021/08/18 00:20:31;;;;;;;24.25;21.98;;;17.40;99.90;;;;;;2071652;28;20477;-70
2021/08/18 00:21:31;;;;;;;23.35;20.65;;;17.40;99.90;;;;;;2070718;28;20104;-70
2021/08/18 00:22:32;;;;;;;24.77;22.45;;;17.40;99.90;;;;;;2071478;28;20034;-70
2021/08/18 00:23:32;;;;;;;23.05;20.95;;;17.40;99.90;;;;;;2071069;28;20030;-70
2021/08/18 00:24:33;;;;;;;23.10;21.10;;;17.40;99.90;;;;;;2071621;28;20478;-70
2021/08/18 00:25:34;;;;;;;22.23;20.23;;;17.40;99.90;;;;;;2071123;28;20100;-69
2021/08/18 00:26:35;;;;;;;24.30;22.13;;;17.40;99.90;;;;;;2071540;28;20079;-70
2021/08/18 00:27:35;;;;;;;25.17;22.45;;;17.40;99.90;;;;;;2071343;28;20026;-69
2021/08/18 00:28:36;;;;;;;22.73;20.73;;;17.40;99.90;;;;;;2071185;28;20036;-69
2021/08/18 00:29:36;;;;;;;22.50;20.42;;;17.40;99.90;;;;;;2071243;28;20026;-69
2021/08/18 00:30:37;;;;;;;23.35;21.33;;;17.40;99.90;;;;;;2071561;28;20112;-69
2021/08/18 00:31:37;;;;;;;22.88;20.73;;;17.40;99.90;;;;;;2071162;28;20026;-69
2021/08/18 00:32:38;;;;;;;22.70;20.70;;;17.40;99.90;;;;;;2071187;28;20101;-69
2021/08/18 00:33:39;;;;;;;21.88;20.02;;;17.40;99.90;;;;;;2072116;28;20040;-69
2021/08/18 00:34:39;;;;;;;20.20;18.38;;;17.40;99.90;;;;;;2071534;28;20026;-69
2021/08/18 00:35:40;;;;;;;21.83;19.83;;;17.40;99.90;;;;;;2071167;28;20029;-69
2021/08/18 00:36:40;;;;;;;22.67;20.67;;;17.40;99.90;;;;;;2071221;28;20041;-69
2021/08/18 00:37:41;;;;;;;21.15;19.25;;;17.40;99.90;;;;;;2071120;28;20549;-69
2021/08/18 00:38:42;;;;;;;20.80;18.90;;;17.40;99.90;;;;;;2071292;28;20026;-69
2021/08/18 00:39:43;;;;;;;19.33;17.63;;;17.40;99.90;;;;;;2071369;28;20030;-69
2021/08/18 00:40:43;;;;;;;20.77;18.75;;;17.40;99.90;;;;;;2071321;28;20390;-69
2021/08/18 00:41:47;;;;;;;20.48;18.70;;;17.40;99.90;;;;;;2071101;28;20025;-69
2021/08/18 00:42:48;;;;;;;21.48;19.58;;;17.40;99.90;;;;;;2071156;28;20076;-69
2021/08/18 00:43:50;;;;;;;20.15;18.35;;;17.40;99.90;;;;;;2071067;28;20509;-69
2021/08/18 00:44:52;;;;;;;20.60;18.83;;;17.40;99.90;;;;;;2071692;28;20060;-69
2021/08/18 00:45:53;;;;;;;18.20;16.58;;;17.40;99.90;;;;;;2071183;28;20172;-70
2021/08/18 00:46:56;;;;;;;21.10;19.10;;;17.40;99.90;;;;;;2071618;28;20026;-70
2021/08/18 00:47:58;;;;;;;19.55;17.95;;;17.40;99.90;;;;;;2071326;28;20597;-70
2021/08/18 00:48:58;;;;;;;20.48;18.67;;;17.40;99.90;;;;;;2071590;28;20061;-69
2021/08/18 00:49:59;;;;;;;20.65;18.75;;;17.40;99.90;;;;;;2075432;28;20026;-69
2021/08/18 00:51:00;;;;;;;18.52;16.73;;;17.40;99.90;;;;;;2071274;28;20052;-69
2021/08/18 00:52:02;;;;;;;19.85;18.15;;;17.40;99.90;;;;;;2070804;28;20026;-69
2021/08/18 00:53:02;;;;;;;19.58;17.88;;;17.40;99.90;;;;;;2071188;28;20017;-69
2021/08/18 00:54:03;;;;;;;19.85;18.08;;;17.40;99.90;;;;;;2071551;28;20025;-69
2021/08/18 00:55:04;;;;;;;19.45;17.63;;;17.40;99.90;;;;;;2071185;28;20096;-69
2021/08/18 00:56:04;;;;;;;21.58;19.58;;;17.40;99.90;;;;;;2071273;28;20075;-69
2021/08/18 00:57:06;;;;;;;19.52;17.83;;;17.50;99.90;;;;;;2071356;28;20076;-69
2021/08/18 00:58:09;;;;;;;19.30;17.70;;;17.50;99.90;;;;;;2071431;28;20045;-69
2021/08/18 00:59:10;;;;;;;19.45;17.67;;;17.50;99.90;;;;;;2071449;28;20068;-69
2021/08/18 01:00:13;;;;;;;21.08;18.92;;;17.50;99.90;;;;;;2071349;28;20022;-69
2021/08/18 01:01:14;;;;;;;20.10;18.30;;;17.50;99.90;;;;;;2071019;28;20050;-69
2021/08/18 01:02:15;;;;;;;20.98;18.85;;;17.50;99.90;;;;;;2071314;28;20033;-69
2021/08/18 01:03:15;;;;;;;19.38;17.63;;;17.50;99.90;;;;;;2070838;28;20026;-69
2021/08/18 01:04:16;;;;;;;20.73;18.75;;;17.50;99.90;;;;;;2071152;28;20030;-69
2021/08/18 01:05:20;;;;;;;20.00;18.30;;;17.50;99.90;;;;;;2071130;28;20692;-69
2021/08/18 01:06:21;;;;;;;19.42;17.73;;;17.50;99.90;;;;;;2071503;28;20101;-69
2021/08/18 01:07:21;;;;;;;20.83;18.63;;;17.50;99.90;;;;;;2071041;28;20437;-69
2021/08/18 01:08:22;;;;;;;19.10;17.50;;;17.50;99.90;;;;;;2071003;28;20096;-69
2021/08/18 01:09:22;;;;;;;19.92;18.23;;;17.40;99.90;;;;;;2071178;28;20026;-69
2021/08/18 01:10:25;;;;;;;19.15;17.45;;;17.50;99.90;;;;;;2071675;28;20033;-69
2021/08/18 01:11:27;;;;;;;19.65;17.88;;;17.50;99.90;;;;;;2071134;28;20041;-69
2021/08/18 01:12:27;;;;;;;21.13;19.27;;;17.50;99.90;;;;;;2071218;28;20037;-69
2021/08/18 01:13:28;;;;;;;21.60;19.70;;;17.50;99.90;;;;;;2070676;28;20026;-69
2021/08/18 01:14:29;;;;;;;19.90;18.10;;;17.50;99.90;;;;;;2071429;28;20030;-69
2021/08/18 01:15:31;;;;;;;19.15;17.50;;;17.50;99.90;;;;;;2071121;28;20026;-69
2021/08/18 01:16:43;;;;;;;19.35;17.35;;;17.50;99.90;;;;;;2070869;28;20041;-69
2021/08/18 01:17:48;;;;;;;18.73;17.17;;;17.50;99.90;;;;;;2071228;28;20053;-69
2021/08/18 01:18:49;;;;;;;20.02;18.23;;;17.50;99.90;;;;;;2071281;28;20180;-69
2021/08/18 01:19:49;;;;;;;20.15;18.17;;;17.50;99.90;;;;;;2071182;28;20106;-69
2021/08/18 01:20:50;;;;;;;19.00;17.30;;;17.50;99.90;;;;;;2071779;28;20052;-69
2021/08/18 01:21:50;;;;;;;19.25;17.58;;;17.50;99.90;;;;;;2071191;28;20037;-69
2021/08/18 01:22:51;;;;;;;20.45;18.48;;;17.40;99.90;;;;;;2070805;28;20172;-69
2021/08/18 01:23:52;;;;;;;19.38;17.58;;;17.50;99.90;;;;;;2071077;28;20041;-69
2021/08/18 01:24:53;;;;;;;18.67;16.90;;;17.50;99.90;;;;;;2071288;28;20105;-69
2021/08/18 01:25:55;;;;;;;20.20;18.40;;;17.50;99.90;;;;;;2071106;28;20049;-70
2021/08/18 01:26:58;;;;;;;18.60;17.00;;;17.50;99.90;;;;;;2066733;28;20022;-69
2021/08/18 01:28:00;;;;;;;18.27;16.58;;;17.40;99.90;;;;;;2071073;28;20038;-69
2021/08/18 01:29:01;;;;;;;18.33;15.90;;;17.40;99.90;;;;;;2071082;28;20026;-69
2021/08/18 01:30:03;;;;;;;19.10;17.38;;;17.40;99.90;;;;;;2071481;28;20033;-69
2021/08/18 01:31:04;;;;;;;17.95;16.20;;;17.40;99.90;;;;;;2071139;28;20034;-69
2021/08/18 01:32:05;;;;;;;16.77;15.20;;;17.40;99.90;;;;;;2070871;28;20029;-69
2021/08/18 01:33:08;;;;;;;17.45;15.88;;;17.40;99.90;;;;;;2070709;28;20026;-69
2021/08/18 01:34:09;;;;;;;16.52;15.02;;;17.40;99.90;;;;;;2072621;28;20112;-69
2021/08/18 01:35:22;;;;;;;16.77;15.07;;;17.40;99.90;;;;;;2072751;28;20026;-69
2021/08/18 01:36:22;;;;;;;17.08;15.65;;;17.40;99.90;;;;;;2072671;28;20033;-69
2021/08/18 01:37:23;;;;;;;17.27;15.70;;;17.40;99.90;;;;;;2072055;28;20041;-69
2021/08/18 01:38:23;;;;;;;18.38;16.88;;;17.40;99.90;;;;;;2072626;28;20034;-69
2021/08/18 01:39:24;;;;;;;18.08;16.48;;;17.40;99.90;;;;;;2070068;28;20030;-69
2021/08/18 01:40:25;;;;;;;17.55;16.13;;;17.40;99.90;;;;;;2072586;28;20029;-69
2021/08/18 01:41:25;;;;;;;18.65;16.95;;;17.40;99.90;;;;;;2072040;28;20088;-69
2021/08/18 01:42:26;;;;;;;16.83;15.38;;;17.50;99.90;;;;;;2072778;28;20438;-69
2021/08/18 01:43:27;;;;;;;16.95;15.32;;;17.50;99.90;;;;;;2072344;28;20119;-69
2021/08/18 01:44:27;;;;;;;17.17;15.68;;;17.50;99.90;;;;;;2072637;28;20030;-69
2021/08/18 01:45:36;;;;;;;16.92;15.50;;;17.50;99.90;;;;;;2072311;28;20022;-69
2021/08/18 01:46:37;;;;;;;18.02;16.20;;;17.50;99.90;;;;;;2072829;28;20408;-69
2021/08/18 01:47:38;;;;;;;19.40;16.10;;;17.50;99.90;;;;;;2072074;28;20041;-69
2021/08/18 01:48:38;;;;;;;18.45;16.85;;;17.50;99.90;;;;;;2072536;28;20133;-69
2021/08/18 01:49:39;;;;;;;16.67;15.27;;;17.50;99.90;;;;;;2072305;28;20037;-69
2021/08/18 01:50:41;;;;;;;18.88;17.27;;;17.50;99.90;;;;;;2073015;28;20052;-69
2021/08/18 01:51:42;;;;;;;18.10;16.45;;;17.50;99.90;;;;;;2072488;28;20065;-69
2021/08/18 01:52:43;;;;;;;18.42;16.83;;;17.50;99.90;;;;;;2072221;28;20478;-69
2021/08/18 01:53:46;;;;;;;18.08;16.48;;;17.50;99.90;;;;;;2072158;28;20037;-69
2021/08/18 01:54:47;;;;;;;18.25;16.55;;;17.50;99.90;;;;;;2072510;28;20061;-69
2021/08/18 01:55:48;;;;;;;17.05;15.35;;;17.50;99.90;;;;;;2072312;28;20049;-69
2021/08/18 01:56:49;;;;;;;16.20;14.75;;;17.50;99.90;;;;;;2072349;28;20030;-69
2021/08/18 01:57:50;;;;;;;17.00;15.60;;;17.60;99.90;;;;;;2072897;28;20101;-69
2021/08/18 01:58:51;;;;;;;16.73;15.32;;;17.60;99.90;;;;;;2072501;28;20113;-69
2021/08/18 01:59:52;;;;;;;17.98;16.27;;;17.50;99.90;;;;;;2072135;28;20030;-69
2021/08/18 02:00:53;;;;;;;17.73;16.13;;;17.50;99.90;;;;;;2073116;28;20034;-69
2021/08/18 02:01:54;;;;;;;17.27;15.65;;;17.50;99.90;;;;;;2073836;28;20076;-69
2021/08/18 02:02:55;;;;;;;17.40;15.65;;;17.60;99.90;;;;;;2073248;28;20101;-69
2021/08/18 02:03:55;;;;;;;16.88;15.48;;;17.50;99.90;;;;;;2073867;28;20076;-69
2021/08/18 02:04:56;;;;;;;17.27;15.57;;;17.50;99.90;;;;;;2077175;28;20148;-69
2021/08/18 02:05:57;;;;;;;18.80;16.92;;;17.50;99.90;;;;;;2073514;28;20026;-69
2021/08/18 02:06:57;;;;;;;17.88;16.10;;;17.60;99.90;;;;;;2073677;28;20037;-69
2021/08/18 02:07:58;;;;;;;18.05;16.52;;;17.60;99.90;;;;;;2073697;28;20030;-69
2021/08/18 02:08:58;;;;;;;18.50;16.88;;;17.50;99.90;;;;;;2073830;28;20102;-70
2021/08/18 02:09:59;;;;;;;17.90;16.30;;;17.60;99.90;;;;;;2073839;28;20373;-70
2021/08/18 02:11:00;;;;;;;17.30;15.70;;;17.60;99.90;;;;;;2073671;28;20022;-69
2021/08/18 02:12:00;;;;;;;17.20;15.73;;;17.50;99.90;;;;;;2073690;28;20328;-69
2021/08/18 02:13:01;;;;;;;16.13;14.77;;;17.50;99.90;;;;;;2073233;28;20033;-69
2021/08/18 02:14:01;;;;;;;15.30;13.90;;;17.60;99.90;;;;;;2073708;28;20057;-69
2021/08/18 02:15:10;;;;;;;14.35;13.20;;;17.50;99.90;;;;;;2073611;28;20489;-69
2021/08/18 02:16:11;;;;;;;16.17;14.80;;;17.50;99.90;;;;;;2073922;28;20025;-69
2021/08/18 02:17:11;;;;;;;16.30;14.90;;;17.50;99.90;;;;;;2073760;28;20049;-69
2021/08/18 02:18:16;;;;;;;15.57;14.15;;;17.50;99.90;;;;;;2073668;28;20026;-69
2021/08/18 02:19:16;;;;;;;16.23;14.63;;;17.50;99.90;;;;;;2068703;28;20022;-69
2021/08/18 02:20:20;;;;;;;17.70;16.02;;;17.50;99.90;;;;;;2073319;28;20026;-69
2021/08/18 02:21:21;;;;;;;15.60;14.23;;;17.50;99.90;;;;;;2073604;28;20021;-69
2021/08/18 02:22:21;;;;;;;15.73;14.07;;;17.50;99.90;;;;;;2073715;28;20021;-69
2021/08/18 02:23:22;;;;;;;16.77;15.25;;;17.60;99.90;;;;;;2073193;28;20030;-70
2021/08/18 02:24:22;;;;;;;15.60;14.10;;;17.60;99.90;;;;;;2073491;28;20038;-70
2021/08/18 02:25:23;;;;;;;15.02;13.63;;;17.60;99.90;;;;;;2073565;28;20477;-69
2021/08/18 02:26:24;;;;;;;17.23;15.32;;;17.60;99.90;;;;;;2074513;28;20091;-69
2021/08/18 02:27:24;;;;;;;16.17;14.52;;;17.60;99.90;;;;;;2076412;28;20033;-69
2021/08/18 02:28:25;;;;;;;15.75;14.15;;;17.60;99.90;;;;;;2073812;28;20021;-69
2021/08/18 02:29:26;;;;;;;15.18;13.95;;;17.60;99.90;;;;;;2072710;28;20030;-69
2021/08/18 02:30:28;;;;;;;15.02;13.73;;;17.60;99.90;;;;;;2073189;28;20053;-69
2021/08/18 02:31:30;;;;;;;15.63;14.23;;;17.60;99.90;;;;;;2073474;28;20485;-69
2021/08/18 02:32:31;;;;;;;14.77;13.43;;;17.60;99.90;;;;;;2073889;28;20379;-69
2021/08/18 02:33:31;;;;;;;15.20;13.95;;;17.60;99.90;;;;;;2073135;28;20057;-69
2021/08/18 02:34:32;;;;;;;15.50;14.15;;;17.50;99.90;;;;;;2073677;28;20386;-70
2021/08/18 02:35:33;;;;;;;15.23;13.85;;;17.60;99.90;;;;;;2073117;28;20528;-70
2021/08/18 02:36:33;;;;;;;14.15;12.95;;;17.60;99.90;;;;;;2073412;28;20030;-70
2021/08/18 02:37:34;;;;;;;15.05;13.75;;;17.50;99.90;;;;;;2071794;28;20026;-70
2021/08/18 02:38:35;;;;;;;12.65;11.60;;;17.50;99.90;;;;;;2073504;28;20038;-70
2021/08/18 02:39:36;;;;;;;14.15;12.88;;;17.60;99.90;;;;;;2073510;28;20226;-69
2021/08/18 02:40:38;;;;;;;14.65;13.32;;;17.60;99.90;;;;;;2073564;28;20516;-69
2021/08/18 02:41:38;;;;;;;15.57;14.13;;;17.50;99.90;;;;;;2065244;28;20030;-69
2021/08/18 02:42:39;;;;;;;14.57;13.18;;;17.60;99.90;;;;;;2065135;28;20064;-70
2021/08/18 02:43:40;;;;;;;14.75;13.43;;;17.60;99.90;;;;;;2068434;28;20084;-70
2021/08/18 02:44:42;;;;;;;14.57;13.10;;;17.60;99.90;;;;;;2072863;28;20041;-70
2021/08/18 02:45:42;;;;;;;13.93;12.73;;;17.60;99.90;;;;;;2072857;28;20030;-70
2021/08/18 02:46:43;;;;;;;14.23;12.82;;;17.60;99.90;;;;;;2073327;28;20029;-70
2021/08/18 02:47:44;;;;;;;14.95;13.65;;;17.60;99.90;;;;;;2073916;28;20021;-69
2021/08/18 02:48:44;;;;;;;15.27;13.88;;;17.60;99.90;;;;;;2073051;28;20414;-69
2021/08/18 02:49:45;;;;;;;14.65;13.35;;;17.60;99.90;;;;;;2072768;28;20378;-69
2021/08/18 02:50:46;;;;;;;15.73;14.18;;;17.60;99.90;;;;;;2072545;28;20087;-70
2021/08/18 02:51:46;;;;;;;16.13;14.52;;;17.60;99.90;;;;;;2073373;28;20125;-70
2021/08/18 02:52:47;;;;;;;15.95;14.55;;;17.60;99.90;;;;;;2073203;28;20429;-69
2021/08/18 02:53:48;;;;;;;15.13;13.73;;;17.60;99.90;;;;;;2073201;28;20073;-70
2021/08/18 02:54:48;;;;;;;15.82;14.23;;;17.60;99.90;;;;;;2075003;28;20053;-70
2021/08/18 02:55:49;;;;;;;16.27;14.73;;;17.60;99.90;;;;;;2073446;28;20038;-70
2021/08/18 02:56:52;;;;;;;17.25;15.63;;;17.60;99.90;;;;;;2073294;28;20100;-70
2021/08/18 02:57:52;;;;;;;16.73;15.23;;;17.60;99.90;;;;;;2073514;28;20576;-70
2021/08/18 02:58:53;;;;;;;17.17;15.57;;;17.60;99.90;;;;;;2073374;28;20382;-70
2021/08/18 02:59:55;;;;;;;18.10;16.48;;;17.60;99.90;;;;;;2073514;28;20026;-70
2021/08/18 03:00:56;;;;;;;18.85;16.98;;;17.60;99.90;;;;;;2073090;28;20025;-70
2021/08/18 03:01:57;;;;;;;18.58;16.77;;;17.60;99.90;;;;;;2072201;28;20490;-70
2021/08/18 03:02:57;;;;;;;18.92;17.30;;;17.60;99.90;;;;;;2072353;28;20030;-70
2021/08/18 03:03:58;;;;;;;19.00;17.20;;;17.60;99.90;;;;;;2072298;28;20026;-70
2021/08/18 03:04:58;;;;;;;18.88;17.17;;;17.60;99.90;;;;;;2072293;28;20073;-70
2021/08/18 03:05:59;;;;;;;18.73;16.92;;;17.60;99.90;;;;;;2072402;28;20036;-70
2021/08/18 03:06:59;;;;;;;19.48;17.67;;;17.60;99.90;;;;;;2072600;28;20087;-70
2021/08/18 03:08:00;;;;;;;20.67;18.67;;;17.60;99.90;;;;;;2072411;28;20413;-70
2021/08/18 03:09:01;;;;;;;19.45;17.73;;;17.60;99.90;;;;;;2079241;28;20014;-70
2021/08/18 03:10:02;;;;;;;21.50;19.63;;;17.60;99.90;;;;;;2073540;28;20489;-70
2021/08/18 03:11:02;;;;;;;22.35;20.23;;;17.60;99.90;;;;;;2071647;28;20026;-70
2021/08/18 03:12:04;;;;;;;18.23;16.63;;;17.60;99.90;;;;;;2071305;28;20466;-70
2021/08/18 03:13:04;;;;;;;20.83;18.83;;;17.60;99.90;;;;;;2071726;28;20032;-70
2021/08/18 03:14:05;;;;;;;21.45;19.33;;;17.60;99.90;;;;;;2072071;28;20022;-70
2021/08/18 03:15:07;;;;;;;20.58;18.77;;;17.60;99.90;;;;;;2074168;28;20219;-70
2021/08/18 03:16:08;;;;;;;21.42;19.42;;;17.60;99.90;;;;;;2072075;28;20016;-70
2021/08/18 03:17:08;;;;;;;21.23;19.25;;;17.60;99.90;;;;;;2071977;28;20025;-70
2021/08/18 03:18:09;;;;;;;20.80;18.95;;;17.60;99.90;;;;;;2071529;28;20042;-70
2021/08/18 03:19:10;;;;;;;21.35;19.50;;;17.60;99.90;;;;;;2071499;28;20148;-70
2021/08/18 03:20:11;;;;;;;22.05;19.95;;;17.60;99.90;;;;;;2072127;28;20072;-70
2021/08/18 03:21:12;;;;;;;20.38;18.58;;;17.60;99.90;;;;;;2072009;28;20017;-70
2021/08/18 03:22:12;;;;;;;21.63;19.73;;;17.60;99.90;;;;;;2073336;28;20029;-70
2021/08/18 03:23:13;;;;;;;19.88;17.95;;;17.60;99.90;;;;;;2072002;28;20415;-70
2021/08/18 03:24:13;;;;;;;21.50;19.52;;;17.60;99.90;;;;;;2071756;28;20033;-70
2021/08/18 03:25:14;;;;;;;20.33;18.30;;;17.60;99.90;;;;;;2072063;28;20064;-70
2021/08/18 03:26:15;;;;;;;22.15;20.05;;;17.60;99.90;;;;;;2071662;28;20014;-70
2021/08/18 03:27:17;;;;;;;20.83;18.88;;;17.60;99.90;;;;;;2069339;28;20022;-70
2021/08/18 03:28:17;;;;;;;23.08;20.85;;;17.60;99.90;;;;;;2071828;28;20156;-70
2021/08/18 03:29:18;;;;;;;22.33;20.33;;;17.60;99.90;;;;;;2072118;28;20030;-70
2021/08/18 03:30:18;;;;;;;22.73;20.58;;;17.60;99.90;;;;;;2071829;28;20847;-70
2021/08/18 03:31:19;;;;;;;21.13;19.15;;;17.70;99.90;;;;;;2071904;28;20022;-70
2021/08/18 03:32:19;;;;;;;19.83;17.98;;;17.70;99.90;;;;;;2071361;28;20088;-70
2021/08/18 03:33:20;;;;;;;23.60;18.95;;;17.60;99.90;;;;;;2071941;28;20064;-70
2021/08/18 03:34:21;;;;;;;23.42;21.30;;;17.60;99.90;;;;;;2075406;28;20112;-70
2021/08/18 03:35:21;;;;;;;21.90;19.83;;;17.70;99.90;;;;;;2078384;28;20053;-70
2021/08/18 03:36:22;;;;;;;22.27;20.17;;;17.70;99.90;;;;;;2069245;28;20034;-70
2021/08/18 03:37:22;;;;;;;21.98;20.00;;;17.60;99.90;;;;;;2071598;28;20026;-70
2021/08/18 03:38:23;;;;;;;23.13;20.90;;;17.60;99.90;;;;;;2071838;28;20025;-70
2021/08/18 03:39:24;;;;;;;22.67;20.48;;;17.60;99.90;;;;;;2069741;28;20044;-70
2021/08/18 03:40:24;;;;;;;23.23;21.13;;;17.70;99.90;;;;;;2071767;28;20462;-70
2021/08/18 03:41:25;;;;;;;20.98;18.95;;;17.60;99.90;;;;;;2071844;28;20056;-70
2021/08/18 03:42:25;;;;;;;22.50;19.70;;;17.60;99.90;;;;;;2071734;28;20039;-70
2021/08/18 03:43:26;;;;;;;23.27;21.00;;;17.70;99.90;;;;;;2071610;28;20425;-70
2021/08/18 03:44:27;;;;;;;21.42;19.45;;;17.60;99.90;;;;;;2071357;28;20099;-70
2021/08/18 03:45:28;;;;;;;22.23;19.95;;;17.60;99.90;;;;;;2071923;28;20025;-70
2021/08/18 03:46:28;;;;;;;22.08;19.95;;;17.60;99.90;;;;;;2071604;28;20148;-70
2021/08/18 03:47:29;;;;;;;21.63;19.67;;;17.60;99.90;;;;;;2070813;28;20026;-70
2021/08/18 03:48:29;;;;;;;21.45;19.27;;;17.60;99.90;;;;;;2075361;28;20437;-70
2021/08/18 03:49:30;;;;;;;24.02;21.63;;;17.60;99.90;;;;;;2071904;28;20030;-70
2021/08/18 03:50:31;;;;;;;22.70;20.58;;;17.60;99.90;;;;;;2071531;28;20026;-70
2021/08/18 03:51:32;;;;;;;21.98;19.98;;;17.60;99.90;;;;;;2071664;28;20053;-71
2021/08/18 03:52:32;;;;;;;21.92;19.70;;;17.60;99.90;;;;;;2071557;28;20034;-70
2021/08/18 03:53:33;;;;;;;23.80;21.50;;;17.60;99.90;;;;;;2071529;28;20388;-70
2021/08/18 03:54:34;;;;;;;22.10;20.00;;;17.70;99.90;;;;;;2079296;28;20393;-70
2021/08/18 03:55:34;;;;;;;23.02;20.70;;;17.60;99.90;;;;;;2072163;28;20065;-70
2021/08/18 03:56:35;;;;;;;23.42;21.10;;;17.60;99.90;;;;;;2071296;28;20119;-70
2021/08/18 03:57:35;;;;;;;22.23;20.15;;;17.60;99.90;;;;;;2071860;28;20056;-70
2021/08/18 03:58:36;;;;;;;21.23;19.30;;;17.60;99.90;;;;;;2071383;28;20076;-70
2021/08/18 03:59:36;;;;;;;24.65;21.30;;;17.60;99.90;;;;;;2070799;28;20592;-70
2021/08/18 04:00:37;;;;;;;25.42;22.63;;;17.60;99.90;;;;;;2071273;28;20046;-70
2021/08/18 04:01:38;;;;;;;23.98;21.55;;;17.60;99.90;;;;;;2071469;28;20037;-70
2021/08/18 04:02:39;;;;;;;23.75;21.65;;;17.60;99.90;;;;;;2079834;28;20029;-70
2021/08/18 04:03:40;;;;;;;23.98;21.75;;;17.60;99.90;;;;;;2071080;28;20030;-70
2021/08/18 04:04:40;;;;;;;22.17;20.20;;;17.60;99.90;;;;;;2070880;28;20041;-70
2021/08/18 04:05:41;;;;;;;23.15;20.98;;;17.60;99.90;;;;;;2071620;28;20105;-70
2021/08/18 04:06:41;;;;;;;23.73;21.27;;;17.60;99.90;;;;;;2071982;28;20025;-70
2021/08/18 04:07:42;;;;;;;22.48;20.48;;;17.60;99.90;;;;;;2070791;28;20032;-70
2021/08/18 04:08:42;;;;;;;22.77;20.77;;;17.60;99.90;;;;;;2071311;28;20425;-70
2021/08/18 04:09:43;;;;;;;23.80;21.45;;;17.60;99.90;;;;;;2067270;28;20022;-70
2021/08/18 04:10:45;;;;;;;23.63;21.40;;;17.60;99.90;;;;;;2071436;28;20022;-70
2021/08/18 04:11:45;;;;;;;23.60;21.50;;;17.60;99.90;;;;;;2071311;28;20014;-70
2021/08/18 04:12:57;;;;;;;23.60;21.50;;;17.60;99.90;;;;;;2071493;28;20033;-69
2021/08/18 04:13:58;;;;;;;23.90;21.60;;;17.60;99.90;;;;;;2076182;28;20064;-70
2021/08/18 04:14:58;;;;;;;24.25;21.85;;;17.60;99.90;;;;;;2072603;28;20038;-70
2021/08/18 04:15:59;;;;;;;25.48;23.02;;;17.60;99.90;;;;;;2071396;28;20030;-70
2021/08/18 04:16:59;;;;;;;20.98;18.88;;;17.60;99.90;;;;;;2071912;28;20045;-70
2021/08/18 04:18:00;;;;;;;24.00;21.45;;;17.60;99.90;;;;;;2071182;28;20502;-70
2021/08/18 04:19:00;;;;;;;24.20;21.88;;;17.70;99.90;;;;;;2071750;28;20037;-70
2021/08/18 04:20:01;;;;;;;22.92;20.83;;;17.70;99.90;;;;;;2071587;28;20474;-70
2021/08/18 04:21:02;;;;;;;25.38;23.00;;;17.70;99.90;;;;;;2071289;28;20037;-70
2021/08/18 04:22:04;;;;;;;26.80;24.00;;;17.70;99.90;;;;;;2071437;28;20044;-70
2021/08/18 04:23:05;;;;;;;23.83;21.38;;;17.70;99.90;;;;;;2071119;28;20109;-70
2021/08/18 04:24:06;;;;;;;23.98;21.67;;;17.70;99.90;;;;;;2071347;28;20022;-70
2021/08/18 04:25:12;;;;;;;24.70;22.30;;;17.70;99.90;;;;;;2071852;28;20437;-70
2021/08/18 04:26:12;;;;;;;22.60;20.27;;;17.70;99.90;;;;;;2071552;28;20034;-70
2021/08/18 04:27:13;;;;;;;24.45;22.20;;;17.60;99.90;;;;;;2072055;28;20022;-70
2021/08/18 04:28:13;;;;;;;25.08;22.70;;;17.70;99.90;;;;;;2079630;28;20041;-70
2021/08/18 04:29:14;;;;;;;24.95;22.40;;;17.70;99.90;;;;;;2075389;28;20469;-70
2021/08/18 04:30:16;;;;;;;25.23;22.83;;;17.70;99.90;;;;;;2071597;28;20018;-70
2021/08/18 04:31:17;;;;;;;24.20;21.98;;;17.70;99.90;;;;;;2071432;28;20034;-70
2021/08/18 04:32:17;;;;;;;26.55;23.77;;;17.70;99.90;;;;;;2071431;28;20062;-70
2021/08/18 04:33:18;;;;;;;25.00;22.55;;;17.60;99.90;;;;;;2072616;28;20037;-70
2021/08/18 04:34:18;;;;;;;25.05;22.65;;;17.60;99.90;;;;;;2073462;28;20549;-70
2021/08/18 04:35:19;;;;;;;24.27;21.98;;;17.60;99.90;;;;;;2071220;28;20109;-70
2021/08/18 04:36:20;;;;;;;24.95;22.70;;;17.60;99.90;;;;;;2071522;28;20018;-70
2021/08/18 04:37:21;;;;;;;25.65;23.02;;;17.60;99.90;;;;;;2071656;28;20080;-70
2021/08/18 04:38:23;;;;;;;22.90;20.58;;;17.60;99.90;;;;;;2071235;28;20177;-69
2021/08/18 04:39:24;;;;;;;23.75;21.35;;;17.60;99.90;;;;;;2071559;28;20038;-70
2021/08/18 04:40:25;;;;;;;24.85;22.27;;;17.60;99.90;;;;;;2071565;28;20042;-70
2021/08/18 04:41:25;;;;;;;23.05;20.85;;;17.60;99.90;;;;;;2075813;28;20112;-70
2021/08/18 04:42:26;;;;;;;21.27;19.17;;;17.60;99.90;;;;;;2073724;28;20470;-70
2021/08/18 04:43:26;;;;;;;22.52;20.30;;;17.60;99.90;;;;;;2070813;28;20125;-70
2021/08/18 04:44:27;;;;;;;24.23;21.73;;;17.60;99.90;;;;;;2071403;28;20508;-70
2021/08/18 04:45:27;;;;;;;24.05;21.55;;;17.60;99.90;;;;;;2071358;28;20490;-70
2021/08/18 04:46:28;;;;;;;22.98;20.70;;;17.60;99.90;;;;;;2071520;28;20022;-70
2021/08/18 04:47:28;;;;;;;24.92;22.50;;;17.60;99.90;;;;;;2071261;28;20555;-70
2021/08/18 04:48:29;;;;;;;23.02;20.83;;;17.60;99.90;;;;;;2071742;28;20037;-70
2021/08/18 04:49:29;;;;;;;23.85;21.50;;;17.60;99.90;;;;;;2071481;28;20400;-70
2021/08/18 04:50:30;;;;;;;24.67;22.27;;;17.70;99.90;;;;;;2071684;28;20075;-70
2021/08/18 04:51:30;;;;;;;24.15;21.83;;;17.60;99.90;;;;;;2071153;28;20022;-70
2021/08/18 04:52:31;;;;;;;23.63;21.45;;;17.60;99.90;;;;;;2071359;28;20037;-70
2021/08/18 04:53:34;;;;;;;24.92;22.55;;;17.60;99.90;;;;;;2071871;28;20049;-70
2021/08/18 04:54:34;;;;;;;24.52;22.33;;;17.60;99.90;;;;;;2071782;28;20084;-70
2021/08/18 04:55:35;;;;;;;23.80;21.40;;;17.70;99.90;;;;;;2071049;28;20033;-70
2021/08/18 04:56:36;;;;;;;23.63;21.45;;;17.70;99.90;;;;;;2071521;28;20573;-70
2021/08/18 04:57:36;;;;;;;24.13;21.65;;;17.70;99.90;;;;;;2071421;28;20055;-70
2021/08/18 04:58:37;;;;;;;22.45;20.33;;;17.70;99.90;;;;;;2071419;28;20092;-70
2021/08/18 04:59:37;;;;;;;21.35;19.23;;;17.70;99.90;;;;;;2071156;28;20030;-70
2021/08/18 05:00:38;;;;;;;21.27;19.35;;;17.70;99.90;;;;;;2071463;28;20540;-70
2021/08/18 05:01:38;;;;;;;21.60;19.48;;;17.70;99.90;;;;;;2070822;28;20064;-70
2021/08/18 05:02:39;;;;;;;21.33;19.13;;;17.70;99.90;;;;;;2070015;28;20471;-70
2021/08/18 05:03:39;;;;;;;21.35;19.15;;;17.70;99.90;;;;;;2070932;28;20026;-71
2021/08/18 05:04:40;;;;;;;19.60;17.70;;;17.70;99.90;;;;;;2071387;28;21042;-69
2021/08/18 05:05:41;;;;;;;18.83;17.02;;;17.70;99.90;;;;;;2070774;28;20022;-70
2021/08/18 05:06:41;;;;;;;17.52;15.90;;;17.70;99.90;;;;;;2071129;28;20380;-70
2021/08/18 05:07:42;;;;;;;16.90;15.25;;;17.70;99.90;;;;;;2078708;28;20025;-70
2021/08/18 05:08:42;;;;;;;16.70;15.00;;;17.70;99.90;;;;;;2072619;28;20105;-70
2021/08/18 05:09:43;;;;;;;17.15;15.45;;;17.70;99.90;;;;;;2072934;28;20026;-70